Fort Lauderdale, FL

8:55 PM EST on February 11, 2016 (GMT -0500)
Coral Ridge | | Change Station
CLOSE
Current Station
Personal Weather Station
Location: Fort Lauderdale, FL
Elevation: 23 ft
Nearby Weather Stations

Elev 23 ft 26.15 °N, 80.11 °W | Updated 44 seconds ago

Partly Cloudy
Partly Cloudy
56.7 °F
Feels Like 56.7 °F
N
0.0
Wind Variable Wind from WSW
Gusts 0.0 mph

Today
High -- | Low -- °F
--% Chance of Precip.
Yesterday
High -- | Low -- °F
Precip. -- in
Pressure 30.30 in
Visibility 10.0 miles
Clouds Clear
Dew Point 52 °F
Humidity 83%
Rainfall 0.00 in
Snow Depth Not available.
6:59 AM 6:10 PM
Waxing Crescent, 16% visible
METAR KFXE 120153Z 00000KT 10SM CLR 13/08 A3029 RMK AO2 SLP259 T01280078
Pressure 30.30 in
Visibility 10.0 miles
Clouds Clear
Dew Point 52 °F
Humidity 83%
Rainfall 0.00 in
Snow Depth Not available.
6:59 AM 6:10 PM
Waxing Crescent, 16% visible
METAR KFXE 120153Z 00000KT 10SM CLR 13/08 A3029 RMK AO2 SLP259 T01280078

10-Day Weather Forecast

Almanac

Astronomy

Feb. 11, 2016 Rise Set
Actual Time
Civil Twilight
Nautical Twilight
Astronomical Twilight
Moon
Length of Visible Light
Length of Day
Tomorrow will be .
, % of the Moon is Illuminated

Today's Extremes

State Highs State Lows

Community

WunderPhotos

Upload Photos

1,892,207 photos uploaded!

WunderBlog® & News

Nearby

Air Quality

  Air Quality AQ Index Pollutant
Not available.

Snow Depth

Station Depth Elevation

Earthquake Activity

City Distance Mag. Time & Date
Minimum magnitude displayed is 2.5.

Coastal Water Temperatures

Place Temperature

Stations

Nearby Weather Stations

Station Location Temp. Windchill Dew Point Humidity Wind Precip. Elev Updated Type
                   

Watches & Warnings

There are currently no watches in effect.